sensor_id;sensor_type;location;lat;lon;timestamp;temperature;humidity
46590;DHT22;32313;48.722;9.362;2023-04-08T00:00:43;7.00;99.90
46590;DHT22;32313;48.722;9.362;2023-04-08T00:03:09;7.00;99.90
46590;DHT22;32313;48.722;9.362;2023-04-08T00:05:35;7.00;99.90
46590;DHT22;32313;48.722;9.362;2023-04-08T00:08:00;7.00;99.90
46590;DHT22;32313;48.722;9.362;2023-04-08T00:10:26;7.00;99.90
46590;DHT22;32313;48.722;9.362;2023-04-08T00:12:52;7.00;99.90
46590;DHT22;32313;48.722;9.362;2023-04-08T00:15:17;7.00;99.90
46590;DHT22;32313;48.722;9.362;2023-04-08T00:17:43;7.00;99.90
46590;DHT22;32313;48.722;9.362;2023-04-08T00:20:10;6.90;99.90
46590;DHT22;32313;48.722;9.362;2023-04-08T00:22:36;6.90;99.90
46590;DHT22;32313;48.722;9.362;2023-04-08T00:25:01;7.00;99.90
46590;DHT22;32313;48.722;9.362;2023-04-08T00:27:34;7.00;99.90
46590;DHT22;32313;48.722;9.362;2023-04-08T00:29:59;7.00;99.90
46590;DHT22;32313;48.722;9.362;2023-04-08T00:32:26;7.00;99.90
46590;DHT22;32313;48.722;9.362;2023-04-08T00:34:52;7.00;99.90
46590;DHT22;32313;48.722;9.362;2023-04-08T00:37:18;7.00;99.90
46590;DHT22;32313;48.722;9.362;2023-04-08T00:39:44;7.00;99.90
46590;DHT22;32313;48.722;9.362;2023-04-08T00:42:09;7.00;99.90
46590;DHT22;32313;48.722;9.362;2023-04-08T00:44:35;7.00;99.90
46590;DHT22;32313;48.722;9.362;2023-04-08T00:47:02;7.00;99.90
46590;DHT22;32313;48.722;9.362;2023-04-08T00:49:30;7.00;99.90
46590;DHT22;32313;48.722;9.362;2023-04-08T00:51:56;7.00;99.90
46590;DHT22;32313;48.722;9.362;2023-04-08T00:54:22;7.00;99.90
46590;DHT22;32313;48.722;9.362;2023-04-08T00:56:47;7.10;99.90
46590;DHT22;32313;48.722;9.362;2023-04-08T00:59:13;7.10;99.90
46590;DHT22;32313;48.722;9.362;2023-04-08T01:01:46;7.10;99.90
46590;DHT22;32313;48.722;9.362;2023-04-08T01:07:14;7.10;99.90
46590;DHT22;32313;48.722;9.362;2023-04-08T01:09:46;7.10;99.90
46590;DHT22;32313;48.722;9.362;2023-04-08T01:12:19;7.00;99.90
46590;DHT22;32313;48.722;9.362;2023-04-08T01:14:46;7.00;99.90
46590;DHT22;32313;48.722;9.362;2023-04-08T01:17:14;7.00;99.90
46590;DHT22;32313;48.722;9.362;2023-04-08T01:19:42;7.00;99.90
46590;DHT22;32313;48.722;9.362;2023-04-08T01:25:04;7.00;99.90
46590;DHT22;32313;48.722;9.362;2023-04-08T01:27:32;7.00;99.90
46590;DHT22;32313;48.722;9.362;2023-04-08T01:30:01;7.00;99.90
46590;DHT22;32313;48.722;9.362;2023-04-08T01:32:31;7.00;99.90
46590;DHT22;32313;48.722;9.362;2023-04-08T01:34:58;7.00;99.90
46590;DHT22;32313;48.722;9.362;2023-04-08T01:37:28;7.00;99.90
46590;DHT22;32313;48.722;9.362;2023-04-08T01:39:55;7.00;99.90
46590;DHT22;32313;48.722;9.362;2023-04-08T01:42:26;7.00;99.90
46590;DHT22;32313;48.722;9.362;2023-04-08T01:44:55;7.00;99.90
46590;DHT22;32313;48.722;9.362;2023-04-08T01:47:22;6.90;99.90
46590;DHT22;32313;48.722;9.362;2023-04-08T01:49:51;6.90;99.90
46590;DHT22;32313;48.722;9.362;2023-04-08T01:52:19;6.80;99.90
46590;DHT22;32313;48.722;9.362;2023-04-08T01:54:45;6.80;99.90
46590;DHT22;32313;48.722;9.362;2023-04-08T01:57:19;6.70;99.90
46590;DHT22;32313;48.722;9.362;2023-04-08T01:59:49;6.70;99.90
46590;DHT22;32313;48.722;9.362;2023-04-08T02:02:20;6.70;99.90
46590;DHT22;32313;48.722;9.362;2023-04-08T02:04:47;6.70;99.90
46590;DHT22;32313;48.722;9.362;2023-04-08T02:07:13;6.80;99.90
46590;DHT22;32313;48.722;9.362;2023-04-08T02:09:39;6.80;99.90
46590;DHT22;32313;48.722;9.362;2023-04-08T02:12:05;6.90;99.90
46590;DHT22;32313;48.722;9.362;2023-04-08T02:14:30;6.90;99.90
46590;DHT22;32313;48.722;9.362;2023-04-08T02:17:08;6.90;99.90
46590;DHT22;32313;48.722;9.362;2023-04-08T02:22:39;6.90;99.90
46590;DHT22;32313;48.722;9.362;2023-04-08T02:25:03;6.90;99.90
46590;DHT22;32313;48.722;9.362;2023-04-08T02:27:33;6.80;99.90
46590;DHT22;32313;48.722;9.362;2023-04-08T02:30:03;6.80;99.90
46590;DHT22;32313;48.722;9.362;2023-04-08T02:32:31;6.80;99.90
46590;DHT22;32313;48.722;9.362;2023-04-08T02:35:00;6.80;99.90
46590;DHT22;32313;48.722;9.362;2023-04-08T02:37:30;6.80;99.90
46590;DHT22;32313;48.722;9.362;2023-04-08T02:39:56;6.80;99.90
46590;DHT22;32313;48.722;9.362;2023-04-08T02:42:22;6.80;99.90
46590;DHT22;32313;48.722;9.362;2023-04-08T02:44:47;6.70;99.90
46590;DHT22;32313;48.722;9.362;2023-04-08T02:47:13;6.70;99.90
46590;DHT22;32313;48.722;9.362;2023-04-08T02:49:39;6.70;99.90
46590;DHT22;32313;48.722;9.362;2023-04-08T02:52:04;6.70;99.90
46590;DHT22;32313;48.722;9.362;2023-04-08T02:54:30;6.70;99.90
46590;DHT22;32313;48.722;9.362;2023-04-08T02:56:56;6.60;99.90
46590;DHT22;32313;48.722;9.362;2023-04-08T02:59:22;6.60;99.90
46590;DHT22;32313;48.722;9.362;2023-04-08T03:01:47;6.60;99.90
46590;DHT22;32313;48.722;9.362;2023-04-08T03:04:13;6.60;99.90
46590;DHT22;32313;48.722;9.362;2023-04-08T03:06:39;6.50;99.90
46590;DHT22;32313;48.722;9.362;2023-04-08T03:09:05;6.50;99.90
46590;DHT22;32313;48.722;9.362;2023-04-08T03:11:30;6.50;99.90
46590;DHT22;32313;48.722;9.362;2023-04-08T03:13:56;6.50;99.90
46590;DHT22;32313;48.722;9.362;2023-04-08T03:16:22;6.50;99.90
46590;DHT22;32313;48.722;9.362;2023-04-08T03:18:49;6.50;99.90
46590;DHT22;32313;48.722;9.362;2023-04-08T03:21:16;6.50;99.90
46590;DHT22;32313;48.722;9.362;2023-04-08T03:23:41;6.50;99.90
46590;DHT22;32313;48.722;9.362;2023-04-08T03:26:07;6.40;99.90
46590;DHT22;32313;48.722;9.362;2023-04-08T03:28:33;6.40;99.90
46590;DHT22;32313;48.722;9.362;2023-04-08T03:30:59;6.40;99.90
46590;DHT22;32313;48.722;9.362;2023-04-08T03:33:25;6.40;99.90
46590;DHT22;32313;48.722;9.362;2023-04-08T03:35:52;6.40;99.90
46590;DHT22;32313;48.722;9.362;2023-04-08T03:38:18;6.40;99.90
46590;DHT22;32313;48.722;9.362;2023-04-08T03:40:44;6.30;99.90
46590;DHT22;32313;48.722;9.362;2023-04-08T03:43:10;6.30;99.90
46590;DHT22;32313;48.722;9.362;2023-04-08T03:45:36;6.30;99.90
46590;DHT22;32313;48.722;9.362;2023-04-08T03:48:02;6.30;99.90
46590;DHT22;32313;48.722;9.362;2023-04-08T03:50:28;6.30;99.90
46590;DHT22;32313;48.722;9.362;2023-04-08T03:52:54;6.30;99.90
46590;DHT22;32313;48.722;9.362;2023-04-08T03:55:19;6.30;99.90
46590;DHT22;32313;48.722;9.362;2023-04-08T03:57:45;6.30;99.90
46590;DHT22;32313;48.722;9.362;2023-04-08T04:00:11;6.20;99.90
46590;DHT22;32313;48.722;9.362;2023-04-08T04:02:39;6.20;99.90
46590;DHT22;32313;48.722;9.362;2023-04-08T04:05:05;6.20;99.90
46590;DHT22;32313;48.722;9.362;2023-04-08T04:07:31;6.20;99.90
46590;DHT22;32313;48.722;9.362;2023-04-08T04:09:57;6.10;99.90
46590;DHT22;32313;48.722;9.362;2023-04-08T04:12:23;6.10;99.90
46590;DHT22;32313;48.722;9.362;2023-04-08T04:14:49;6.10;99.90
46590;DHT22;32313;48.722;9.362;2023-04-08T04:17:14;6.00;99.90
46590;DHT22;32313;48.722;9.362;2023-04-08T04:19:40;5.90;99.90
46590;DHT22;32313;48.722;9.362;2023-04-08T04:22:06;5.90;99.90
46590;DHT22;32313;48.722;9.362;2023-04-08T04:24:32;5.80;99.90
46590;DHT22;32313;48.722;9.362;2023-04-08T04:26:58;5.70;99.90
46590;DHT22;32313;48.722;9.362;2023-04-08T04:29:26;5.60;99.90
46590;DHT22;32313;48.722;9.362;2023-04-08T04:31:52;5.60;99.90
46590;DHT22;32313;48.722;9.362;2023-04-08T04:34:18;5.60;99.90
46590;DHT22;32313;48.722;9.362;2023-04-08T04:36:43;5.50;99.90
46590;DHT22;32313;48.722;9.362;2023-04-08T04:39:09;5.50;99.90
46590;DHT22;32313;48.722;9.362;2023-04-08T04:41:35;5.50;99.90
46590;DHT22;32313;48.722;9.362;2023-04-08T04:44:05;5.50;99.90
46590;DHT22;32313;48.722;9.362;2023-04-08T04:46:30;5.50;99.90
46590;DHT22;32313;48.722;9.362;2023-04-08T04:48:56;5.50;99.90
46590;DHT22;32313;48.722;9.362;2023-04-08T04:51:22;5.50;99.90
46590;DHT22;32313;48.722;9.362;2023-04-08T04:53:47;5.50;99.90
46590;DHT22;32313;48.722;9.362;2023-04-08T04:56:14;5.50;99.90
46590;DHT22;32313;48.722;9.362;2023-04-08T04:58:40;5.60;99.90
46590;DHT22;32313;48.722;9.362;2023-04-08T05:01:06;5.60;99.90
46590;DHT22;32313;48.722;9.362;2023-04-08T05:03:32;5.70;99.90
46590;DHT22;32313;48.722;9.362;2023-04-08T05:05:58;5.70;99.90
46590;DHT22;32313;48.722;9.362;2023-04-08T05:08:23;5.70;99.90
46590;DHT22;32313;48.722;9.362;2023-04-08T05:10:49;5.80;99.90
46590;DHT22;32313;48.722;9.362;2023-04-08T05:13:15;5.80;99.90
46590;DHT22;32313;48.722;9.362;2023-04-08T05:15:41;5.90;99.90
46590;DHT22;32313;48.722;9.362;2023-04-08T05:18:13;5.90;99.90
46590;DHT22;32313;48.722;9.362;2023-04-08T05:20:38;5.90;99.90
46590;DHT22;32313;48.722;9.362;2023-04-08T05:23:04;6.00;99.90
46590;DHT22;32313;48.722;9.362;2023-04-08T05:25:30;5.90;99.90
46590;DHT22;32313;48.722;9.362;2023-04-08T05:27:56;5.90;99.90
46590;DHT22;32313;48.722;9.362;2023-04-08T05:30:22;5.90;99.90
46590;DHT22;32313;48.722;9.362;2023-04-08T05:32:47;6.10;99.90
46590;DHT22;32313;48.722;9.362;2023-04-08T05:35:13;6.10;99.90
46590;DHT22;32313;48.722;9.362;2023-04-08T05:37:39;6.20;99.90
46590;DHT22;32313;48.722;9.362;2023-04-08T05:40:05;6.30;99.90
46590;DHT22;32313;48.722;9.362;2023-04-08T05:42:31;6.40;99.90
46590;DHT22;32313;48.722;9.362;2023-04-08T05:44:57;6.50;99.90
46590;DHT22;32313;48.722;9.362;2023-04-08T05:47:23;6.50;99.90
46590;DHT22;32313;48.722;9.362;2023-04-08T05:49:48;6.60;99.90
46590;DHT22;32313;48.722;9.362;2023-04-08T05:52:14;6.60;99.90
46590;DHT22;32313;48.722;9.362;2023-04-08T05:54:44;6.70;99.90
46590;DHT22;32313;48.722;9.362;2023-04-08T05:57:10;6.80;99.90
46590;DHT22;32313;48.722;9.362;2023-04-08T05:59:36;6.80;99.90
46590;DHT22;32313;48.722;9.362;2023-04-08T06:02:02;6.90;99.90
46590;DHT22;32313;48.722;9.362;2023-04-08T06:04:27;6.90;99.90
46590;DHT22;32313;48.722;9.362;2023-04-08T06:06:54;6.90;99.90
46590;DHT22;32313;48.722;9.362;2023-04-08T06:09:22;7.00;99.90
46590;DHT22;32313;48.722;9.362;2023-04-08T06:11:47;7.00;99.90
46590;DHT22;32313;48.722;9.362;2023-04-08T06:14:15;7.00;99.90
46590;DHT22;32313;48.722;9.362;2023-04-08T06:16:40;7.00;99.90
46590;DHT22;32313;48.722;9.362;2023-04-08T06:19:06;7.00;99.90
46590;DHT22;32313;48.722;9.362;2023-04-08T06:21:31;7.00;99.90
46590;DHT22;32313;48.722;9.362;2023-04-08T06:23:57;7.00;99.90
46590;DHT22;32313;48.722;9.362;2023-04-08T06:26:23;7.00;99.90
46590;DHT22;32313;48.722;9.362;2023-04-08T06:28:48;7.00;99.90
46590;DHT22;32313;48.722;9.362;2023-04-08T06:31:14;7.10;99.90
46590;DHT22;32313;48.722;9.362;2023-04-08T06:33:40;7.10;99.90
46590;DHT22;32313;48.722;9.362;2023-04-08T06:36:06;7.30;99.90
46590;DHT22;32313;48.722;9.362;2023-04-08T06:38:33;7.40;99.90
46590;DHT22;32313;48.722;9.362;2023-04-08T06:41:03;7.40;99.90
46590;DHT22;32313;48.722;9.362;2023-04-08T06:43:29;7.40;99.90
46590;DHT22;32313;48.722;9.362;2023-04-08T06:45:55;7.40;99.90
46590;DHT22;32313;48.722;9.362;2023-04-08T06:48:21;7.50;99.90
46590;DHT22;32313;48.722;9.362;2023-04-08T06:50:48;7.50;99.90
46590;DHT22;32313;48.722;9.362;2023-04-08T06:53:14;7.50;99.90
46590;DHT22;32313;48.722;9.362;2023-04-08T06:55:39;7.50;99.90
46590;DHT22;32313;48.722;9.362;2023-04-08T06:58:05;7.50;99.90
46590;DHT22;32313;48.722;9.362;2023-04-08T07:00:31;7.60;99.90
46590;DHT22;32313;48.722;9.362;2023-04-08T07:02:57;7.70;99.90
46590;DHT22;32313;48.722;9.362;2023-04-08T07:05:22;7.70;99.90
46590;DHT22;32313;48.722;9.362;2023-04-08T07:07:48;7.80;99.90
46590;DHT22;32313;48.722;9.362;2023-04-08T07:10:13;7.90;99.90
46590;DHT22;32313;48.722;9.362;2023-04-08T07:12:40;8.00;99.90
46590;DHT22;32313;48.722;9.362;2023-04-08T07:15:06;8.00;99.90
46590;DHT22;32313;48.722;9.362;2023-04-08T07:17:35;8.10;99.90
46590;DHT22;32313;48.722;9.362;2023-04-08T07:20:01;8.20;99.90
46590;DHT22;32313;48.722;9.362;2023-04-08T07:22:26;8.20;99.90
46590;DHT22;32313;48.722;9.362;2023-04-08T07:24:52;8.30;99.90
46590;DHT22;32313;48.722;9.362;2023-04-08T07:27:18;8.30;99.90
46590;DHT22;32313;48.722;9.362;2023-04-08T07:29:44;8.30;99.90
46590;DHT22;32313;48.722;9.362;2023-04-08T07:32:10;8.50;99.90
46590;DHT22;32313;48.722;9.362;2023-04-08T07:34:35;8.60;99.90
46590;DHT22;32313;48.722;9.362;2023-04-08T07:37:01;8.80;99.90
46590;DHT22;32313;48.722;9.362;2023-04-08T07:39:27;9.00;99.90
46590;DHT22;32313;48.722;9.362;2023-04-08T07:41:53;9.10;99.90
46590;DHT22;32313;48.722;9.362;2023-04-08T07:44:18;9.20;99.90
46590;DHT22;32313;48.722;9.362;2023-04-08T07:46:44;9.40;99.90
46590;DHT22;32313;48.722;9.362;2023-04-08T07:49:13;9.60;99.90
46590;DHT22;32313;48.722;9.362;2023-04-08T07:51:39;10.00;99.90
46590;DHT22;32313;48.722;9.362;2023-04-08T07:54:04;10.20;99.90
46590;DHT22;32313;48.722;9.362;2023-04-08T07:56:30;10.30;99.90
46590;DHT22;32313;48.722;9.362;2023-04-08T07:58:56;10.20;99.90
46590;DHT22;32313;48.722;9.362;2023-04-08T08:01:22;10.20;99.90
46590;DHT22;32313;48.722;9.362;2023-04-08T08:03:49;10.00;99.90
46590;DHT22;32313;48.722;9.362;2023-04-08T08:06:15;9.90;99.90
46590;DHT22;32313;48.722;9.362;2023-04-08T08:08:41;9.90;99.90
46590;DHT22;32313;48.722;9.362;2023-04-08T08:11:07;10.00;99.90
46590;DHT22;32313;48.722;9.362;2023-04-08T08:13:33;10.20;99.90
46590;DHT22;32313;48.722;9.362;2023-04-08T08:16:04;10.30;99.90
46590;DHT22;32313;48.722;9.362;2023-04-08T08:18:33;10.30;99.90
46590;DHT22;32313;48.722;9.362;2023-04-08T08:21:01;10.20;99.90
46590;DHT22;32313;48.722;9.362;2023-04-08T08:23:26;10.10;99.90
46590;DHT22;32313;48.722;9.362;2023-04-08T08:26:03;10.10;99.90
46590;DHT22;32313;48.722;9.362;2023-04-08T08:28:31;10.10;99.90
46590;DHT22;32313;48.722;9.362;2023-04-08T08:30:58;10.00;99.90
46590;DHT22;32313;48.722;9.362;2023-04-08T08:33:24;10.10;99.90
46590;DHT22;32313;48.722;9.362;2023-04-08T08:35:50;10.20;99.90
46590;DHT22;32313;48.722;9.362;2023-04-08T08:38:19;10.30;99.90
46590;DHT22;32313;48.722;9.362;2023-04-08T08:40:45;10.50;99.90
46590;DHT22;32313;48.722;9.362;2023-04-08T08:43:11;10.60;99.90
46590;DHT22;32313;48.722;9.362;2023-04-08T08:45:40;10.90;99.90
46590;DHT22;32313;48.722;9.362;2023-04-08T08:48:07;11.10;99.90
46590;DHT22;32313;48.722;9.362;2023-04-08T08:50:36;11.30;99.90
46590;DHT22;32313;48.722;9.362;2023-04-08T08:53:02;11.80;99.90
46590;DHT22;32313;48.722;9.362;2023-04-08T08:55:30;12.10;99.90
46590;DHT22;32313;48.722;9.362;2023-04-08T08:58:01;12.20;99.90
46590;DHT22;32313;48.722;9.362;2023-04-08T09:00:39;12.40;99.90
46590;DHT22;32313;48.722;9.362;2023-04-08T09:03:18;12.70;99.90
46590;DHT22;32313;48.722;9.362;2023-04-08T09:05:54;12.90;99.90
46590;DHT22;32313;48.722;9.362;2023-04-08T09:08:34;13.30;99.90
46590;DHT22;32313;48.722;9.362;2023-04-08T09:11:29;13.60;99.90
46590;DHT22;32313;48.722;9.362;2023-04-08T09:13:56;13.80;99.90
46590;DHT22;32313;48.722;9.362;2023-04-08T09:16:22;13.80;99.90
46590;DHT22;32313;48.722;9.362;2023-04-08T09:18:48;14.10;99.90
46590;DHT22;32313;48.722;9.362;2023-04-08T09:21:15;13.80;99.90
46590;DHT22;32313;48.722;9.362;2023-04-08T09:23:49;13.50;99.90
46590;DHT22;32313;48.722;9.362;2023-04-08T09:26:20;13.40;99.90
46590;DHT22;32313;48.722;9.362;2023-04-08T09:29:03;13.70;99.90
46590;DHT22;32313;48.722;9.362;2023-04-08T09:31:35;14.30;99.90
46590;DHT22;32313;48.722;9.362;2023-04-08T09:34:23;14.90;99.90
46590;DHT22;32313;48.722;9.362;2023-04-08T09:36:49;15.40;99.90
46590;DHT22;32313;48.722;9.362;2023-04-08T09:39:15;15.30;99.90
46590;DHT22;32313;48.722;9.362;2023-04-08T09:41:42;15.00;99.90
46590;DHT22;32313;48.722;9.362;2023-04-08T09:44:10;15.50;99.90
46590;DHT22;32313;48.722;9.362;2023-04-08T09:49:33;16.10;99.90
46590;DHT22;32313;48.722;9.362;2023-04-08T09:52:23;15.90;99.90
46590;DHT22;32313;48.722;9.362;2023-04-08T09:55:03;16.30;99.90
46590;DHT22;32313;48.722;9.362;2023-04-08T09:58:05;16.80;99.90
46590;DHT22;32313;48.722;9.362;2023-04-08T10:00:39;17.30;99.90
46590;DHT22;32313;48.722;9.362;2023-04-08T10:05:49;17.10;99.90
46590;DHT22;32313;48.722;9.362;2023-04-08T10:08:17;17.20;99.90
46590;DHT22;32313;48.722;9.362;2023-04-08T10:10:43;17.00;99.90
46590;DHT22;32313;48.722;9.362;2023-04-08T10:13:10;16.80;99.90
46590;DHT22;32313;48.722;9.362;2023-04-08T10:15:36;16.50;99.90
46590;DHT22;32313;48.722;9.362;2023-04-08T10:25:30;15.30;99.90
46590;DHT22;32313;48.722;9.362;2023-04-08T10:27:57;15.00;99.90
46590;DHT22;32313;48.722;9.362;2023-04-08T10:32:57;14.00;99.90
46590;DHT22;32313;48.722;9.362;2023-04-08T10:35:35;13.60;99.90
46590;DHT22;32313;48.722;9.362;2023-04-08T10:38:02;13.30;99.90
46590;DHT22;32313;48.722;9.362;2023-04-08T10:40:28;12.90;99.90
46590;DHT22;32313;48.722;9.362;2023-04-08T10:42:57;12.70;99.90
46590;DHT22;32313;48.722;9.362;2023-04-08T10:45:24;12.40;99.90
46590;DHT22;32313;48.722;9.362;2023-04-08T10:47:49;12.10;99.90
46590;DHT22;32313;48.722;9.362;2023-04-08T10:50:18;12.00;99.90
46590;DHT22;32313;48.722;9.362;2023-04-08T10:52:48;11.80;99.90
46590;DHT22;32313;48.722;9.362;2023-04-08T10:55:14;11.60;99.90
46590;DHT22;32313;48.722;9.362;2023-04-08T10:57:41;11.50;99.90
46590;DHT22;32313;48.722;9.362;2023-04-08T11:00:10;11.30;99.90
46590;DHT22;32313;48.722;9.362;2023-04-08T11:02:39;11.40;99.90
46590;DHT22;32313;48.722;9.362;2023-04-08T11:05:05;11.40;99.90
46590;DHT22;32313;48.722;9.362;2023-04-08T11:07:31;11.50;99.90
46590;DHT22;32313;48.722;9.362;2023-04-08T11:10:02;11.70;99.90
46590;DHT22;32313;48.722;9.362;2023-04-08T11:12:27;11.80;99.90
46590;DHT22;32313;48.722;9.362;2023-04-08T11:14:53;11.90;99.90
46590;DHT22;32313;48.722;9.362;2023-04-08T11:17:19;12.10;99.90
46590;DHT22;32313;48.722;9.362;2023-04-08T11:19:45;12.20;99.90
46590;DHT22;32313;48.722;9.362;2023-04-08T11:22:11;12.40;99.90
46590;DHT22;32313;48.722;9.362;2023-04-08T11:24:38;12.50;99.90
46590;DHT22;32313;48.722;9.362;2023-04-08T11:27:04;12.60;99.90
46590;DHT22;32313;48.722;9.362;2023-04-08T11:29:33;12.50;99.90
46590;DHT22;32313;48.722;9.362;2023-04-08T11:31:59;12.40;99.90
46590;DHT22;32313;48.722;9.362;2023-04-08T11:34:25;12.40;99.90
46590;DHT22;32313;48.722;9.362;2023-04-08T11:36:51;12.30;99.90
46590;DHT22;32313;48.722;9.362;2023-04-08T11:39:21;12.20;99.90
46590;DHT22;32313;48.722;9.362;2023-04-08T11:41:48;12.10;99.90
46590;DHT22;32313;48.722;9.362;2023-04-08T11:44:14;12.00;99.50
46590;DHT22;32313;48.722;9.362;2023-04-08T11:46:40;11.90;99.90
46590;DHT22;32313;48.722;9.362;2023-04-08T11:49:16;11.90;99.90
46590;DHT22;32313;48.722;9.362;2023-04-08T11:52:02;11.90;99.60
46590;DHT22;32313;48.722;9.362;2023-04-08T11:54:29;11.90;99.60
46590;DHT22;32313;48.722;9.362;2023-04-08T11:56:55;11.90;98.40
46590;DHT22;32313;48.722;9.362;2023-04-08T11:59:23;11.90;98.40
46590;DHT22;32313;48.722;9.362;2023-04-08T12:01:50;11.90;96.60
46590;DHT22;32313;48.722;9.362;2023-04-08T12:04:15;11.90;95.90
46590;DHT22;32313;48.722;9.362;2023-04-08T12:06:42;11.80;95.80
46590;DHT22;32313;48.722;9.362;2023-04-08T12:09:11;11.90;95.80
46590;DHT22;32313;48.722;9.362;2023-04-08T12:11:37;11.90;95.20
46590;DHT22;32313;48.722;9.362;2023-04-08T12:14:03;12.00;96.20
46590;DHT22;32313;48.722;9.362;2023-04-08T12:16:29;12.00;96.60
46590;DHT22;32313;48.722;9.362;2023-04-08T12:18:55;12.10;97.30
46590;DHT22;32313;48.722;9.362;2023-04-08T12:21:20;12.20;97.40
46590;DHT22;32313;48.722;9.362;2023-04-08T12:23:46;12.50;97.60
46590;DHT22;32313;48.722;9.362;2023-04-08T12:26:11;12.60;97.10
46590;DHT22;32313;48.722;9.362;2023-04-08T12:28:42;12.80;97.90
46590;DHT22;32313;48.722;9.362;2023-04-08T12:31:09;12.90;97.30
46590;DHT22;32313;48.722;9.362;2023-04-08T12:33:35;12.90;98.20
46590;DHT22;32313;48.722;9.362;2023-04-08T12:36:01;13.10;98.30
46590;DHT22;32313;48.722;9.362;2023-04-08T12:38:26;13.20;98.50
46590;DHT22;32313;48.722;9.362;2023-04-08T12:40:52;13.30;99.00
46590;DHT22;32313;48.722;9.362;2023-04-08T12:43:18;13.40;98.60
46590;DHT22;32313;48.722;9.362;2023-04-08T12:45:44;13.50;98.30
46590;DHT22;32313;48.722;9.362;2023-04-08T12:48:09;13.50;98.50
46590;DHT22;32313;48.722;9.362;2023-04-08T12:50:35;13.50;98.00
46590;DHT22;32313;48.722;9.362;2023-04-08T12:53:01;13.40;98.20
46590;DHT22;32313;48.722;9.362;2023-04-08T12:55:27;13.20;98.80
46590;DHT22;32313;48.722;9.362;2023-04-08T12:57:52;13.00;98.80
46590;DHT22;32313;48.722;9.362;2023-04-08T13:00:18;12.80;99.10
46590;DHT22;32313;48.722;9.362;2023-04-08T13:02:45;12.80;99.00
46590;DHT22;32313;48.722;9.362;2023-04-08T13:05:11;12.70;98.90
46590;DHT22;32313;48.722;9.362;2023-04-08T13:07:36;12.60;98.50
46590;DHT22;32313;48.722;9.362;2023-04-08T13:10:02;12.60;99.20
46590;DHT22;32313;48.722;9.362;2023-04-08T13:12:28;12.60;99.40
46590;DHT22;32313;48.722;9.362;2023-04-08T13:14:54;12.70;99.80
46590;DHT22;32313;48.722;9.362;2023-04-08T13:17:20;12.70;99.80
46590;DHT22;32313;48.722;9.362;2023-04-08T13:19:46;12.60;99.40
46590;DHT22;32313;48.722;9.362;2023-04-08T13:22:15;12.40;99.90
46590;DHT22;32313;48.722;9.362;2023-04-08T13:24:41;12.20;99.90
46590;DHT22;32313;48.722;9.362;2023-04-08T13:27:06;12.10;99.90
46590;DHT22;32313;48.722;9.362;2023-04-08T13:29:32;11.90;99.90
46590;DHT22;32313;48.722;9.362;2023-04-08T13:31:58;11.80;99.90
46590;DHT22;32313;48.722;9.362;2023-04-08T13:34:26;11.60;99.90
46590;DHT22;32313;48.722;9.362;2023-04-08T13:36:51;11.50;99.90
46590;DHT22;32313;48.722;9.362;2023-04-08T13:39:17;11.40;99.90
46590;DHT22;32313;48.722;9.362;2023-04-08T13:41:43;11.20;99.90
46590;DHT22;32313;48.722;9.362;2023-04-08T13:44:08;11.20;99.90
46590;DHT22;32313;48.722;9.362;2023-04-08T13:46:35;11.20;99.90
46590;DHT22;32313;48.722;9.362;2023-04-08T13:49:00;11.10;99.90
46590;DHT22;32313;48.722;9.362;2023-04-08T13:51:28;11.00;99.90
46590;DHT22;32313;48.722;9.362;2023-04-08T13:53:53;11.00;99.90
46590;DHT22;32313;48.722;9.362;2023-04-08T13:56:19;11.10;99.90
46590;DHT22;32313;48.722;9.362;2023-04-08T13:58:45;11.00;99.90
46590;DHT22;32313;48.722;9.362;2023-04-08T14:01:11;11.00;99.90
46590;DHT22;32313;48.722;9.362;2023-04-08T14:03:37;11.10;99.90
46590;DHT22;32313;48.722;9.362;2023-04-08T14:06:03;11.10;99.90
46590;DHT22;32313;48.722;9.362;2023-04-08T14:08:29;11.10;99.90
46590;DHT22;32313;48.722;9.362;2023-04-08T14:10:55;11.00;99.90
46590;DHT22;32313;48.722;9.362;2023-04-08T14:13:21;11.00;99.90
46590;DHT22;32313;48.722;9.362;2023-04-08T14:15:46;10.90;99.90
46590;DHT22;32313;48.722;9.362;2023-04-08T14:18:14;10.80;99.90
46590;DHT22;32313;48.722;9.362;2023-04-08T14:20:41;10.90;99.90
46590;DHT22;32313;48.722;9.362;2023-04-08T14:23:07;10.90;99.90
46590;DHT22;32313;48.722;9.362;2023-04-08T14:25:33;11.00;99.90
46590;DHT22;32313;48.722;9.362;2023-04-08T14:27:58;11.00;99.90
46590;DHT22;32313;48.722;9.362;2023-04-08T14:30:25;11.00;99.90
46590;DHT22;32313;48.722;9.362;2023-04-08T14:32:51;10.90;99.90
46590;DHT22;32313;48.722;9.362;2023-04-08T14:35:17;11.00;99.90
46590;DHT22;32313;48.722;9.362;2023-04-08T14:37:43;10.80;99.90
46590;DHT22;32313;48.722;9.362;2023-04-08T14:40:09;10.80;99.90
46590;DHT22;32313;48.722;9.362;2023-04-08T14:42:35;10.80;99.90
46590;DHT22;32313;48.722;9.362;2023-04-08T14:45:00;10.70;99.90
46590;DHT22;32313;48.722;9.362;2023-04-08T14:47:26;10.60;99.90
46590;DHT22;32313;48.722;9.362;2023-04-08T14:49:52;10.60;99.90
46590;DHT22;32313;48.722;9.362;2023-04-08T14:52:17;10.70;99.90
46590;DHT22;32313;48.722;9.362;2023-04-08T14:54:43;10.90;99.90
46590;DHT22;32313;48.722;9.362;2023-04-08T14:57:09;10.90;99.90
46590;DHT22;32313;48.722;9.362;2023-04-08T14:59:35;11.00;99.90
46590;DHT22;32313;48.722;9.362;2023-04-08T15:02:01;11.20;99.90
46590;DHT22;32313;48.722;9.362;2023-04-08T15:04:27;11.30;99.90
46590;DHT22;32313;48.722;9.362;2023-04-08T15:06:52;11.40;99.90
46590;DHT22;32313;48.722;9.362;2023-04-08T15:09:18;11.40;99.90
46590;DHT22;32313;48.722;9.362;2023-04-08T15:11:44;11.50;99.90
46590;DHT22;32313;48.722;9.362;2023-04-08T15:14:09;11.50;99.90
46590;DHT22;32313;48.722;9.362;2023-04-08T15:16:36;11.50;99.90
46590;DHT22;32313;48.722;9.362;2023-04-08T15:19:01;11.50;99.90
46590;DHT22;32313;48.722;9.362;2023-04-08T15:21:29;11.50;99.90
46590;DHT22;32313;48.722;9.362;2023-04-08T15:23:55;11.40;99.90
46590;DHT22;32313;48.722;9.362;2023-04-08T15:26:21;11.30;99.90
46590;DHT22;32313;48.722;9.362;2023-04-08T15:28:47;11.40;99.90
46590;DHT22;32313;48.722;9.362;2023-04-08T15:31:12;11.50;99.90
46590;DHT22;32313;48.722;9.362;2023-04-08T15:33:38;11.30;99.90
46590;DHT22;32313;48.722;9.362;2023-04-08T15:36:06;11.20;99.90
46590;DHT22;32313;48.722;9.362;2023-04-08T15:38:32;11.00;99.90
46590;DHT22;32313;48.722;9.362;2023-04-08T15:41:00;11.00;99.90
46590;DHT22;32313;48.722;9.362;2023-04-08T15:43:26;11.00;99.90
46590;DHT22;32313;48.722;9.362;2023-04-08T15:45:52;11.00;99.90
46590;DHT22;32313;48.722;9.362;2023-04-08T15:48:18;11.00;99.90
46590;DHT22;32313;48.722;9.362;2023-04-08T15:50:43;11.00;99.90
46590;DHT22;32313;48.722;9.362;2023-04-08T15:53:09;10.90;99.90
46590;DHT22;32313;48.722;9.362;2023-04-08T15:55:39;10.80;99.90
46590;DHT22;32313;48.722;9.362;2023-04-08T15:58:05;10.90;99.90
46590;DHT22;32313;48.722;9.362;2023-04-08T16:00:31;10.90;99.90